Time;durP1;ratioP1;P1;durP2;ratioP2;P2;SDS_P1;SDS_P2;PMS_P1;PMS_P2;Temp;Humidity;BMP_temperature;BMP_pressure;BME280_temperature;BME280_humidity;BME280_pressure;Samples;Min_cycle;Max_cycle;Signal;HPM_P1;HPM_P2
2021/12/30 00:03:46;;;;;;;13.02;4.75;;;9.90;99.90;;;;;;10343756;28;20077;-61
2021/12/30 00:08:50;;;;;;;17.50;5.30;;;9.90;99.90;;;;;;10341845;28;20100;-61
2021/12/30 00:13:51;;;;;;;11.93;5.13;;;10.00;99.90;;;;;;10336670;28;20675;-61
2021/12/30 00:18:53;;;;;;;10.80;4.13;;;10.10;99.90;;;;;;10343926;28;20049;-61
2021/12/30 00:23:55;;;;;;;8.40;4.20;;;10.10;99.90;;;;;;10343917;28;20049;-61
2021/12/30 00:28:57;;;;;;;7.60;4.35;;;10.20;99.90;;;;;;10339219;28;20092;-61
2021/12/30 00:33:59;;;;;;;10.23;4.40;;;10.30;99.90;;;;;;10344951;28;20050;-61
2021/12/30 00:39:00;;;;;;;9.68;3.50;;;10.30;99.90;;;;;;10339883;28;23197;-62
2021/12/30 00:44:02;;;;;;;6.22;3.78;;;10.40;99.90;;;;;;10342975;28;20460;-61
2021/12/30 00:49:04;;;;;;;7.82;4.20;;;10.30;99.90;;;;;;10339392;28;20077;-61
2021/12/30 00:54:06;;;;;;;11.52;4.53;;;10.30;99.90;;;;;;10342175;28;20116;-61
2021/12/30 00:59:08;;;;;;;10.05;4.88;;;10.20;99.90;;;;;;10348832;28;20081;-61
2021/12/30 01:04:10;;;;;;;11.27;5.07;;;10.10;99.90;;;;;;10342597;28;20493;-62
2021/12/30 01:09:12;;;;;;;9.20;3.95;;;10.10;99.90;;;;;;10340753;28;20164;-62
2021/12/30 01:14:18;;;;;;;8.43;4.30;;;10.10;99.90;;;;;;10342168;28;20123;-61
2021/12/30 01:24:23;;;;;;;10.18;3.53;;;10.00;99.90;;;;;;10338277;28;20057;-61
2021/12/30 01:29:27;;;;;;;9.15;4.32;;;10.00;99.90;;;;;;10337880;28;20129;-61
2021/12/30 01:34:28;;;;;;;10.40;1.45;;;10.00;99.90;;;;;;10338880;28;20508;-62
2021/12/30 01:39:32;;;;;;;7.78;1.35;;;10.10;99.90;;;;;;10332539;28;20108;-61
2021/12/30 01:44:35;;;;;;;5.60;1.10;;;10.20;99.90;;;;;;10337036;28;20089;-62
2021/12/30 01:49:38;;;;;;;5.50;0.77;;;10.20;99.90;;;;;;10340286;28;20077;-62
2021/12/30 01:54:39;;;;;;;1.85;0.70;;;10.30;99.90;;;;;;10337397;28;20053;-62
2021/12/30 01:59:41;;;;;;;4.80;0.40;;;10.40;99.90;;;;;;10338337;28;20489;-61
2021/12/30 02:04:43;;;;;;;3.03;0.40;;;10.50;99.90;;;;;;10338095;28;20108;-61
2021/12/30 02:09:45;;;;;;;4.65;0.70;;;10.50;99.90;;;;;;10334506;28;20045;-62
2021/12/30 02:14:47;;;;;;;3.63;0.40;;;10.50;99.90;;;;;;10332977;28;20046;-60
2021/12/30 02:19:49;;;;;;;3.03;0.38;;;10.60;99.90;;;;;;10333610;28;20104;-62
2021/12/30 02:24:51;;;;;;;3.38;0.52;;;10.60;99.90;;;;;;10340117;28;20123;-61
2021/12/30 02:29:53;;;;;;;3.35;0.70;;;10.70;99.90;;;;;;10334057;28;20137;-61
2021/12/30 02:34:54;;;;;;;3.67;0.60;;;10.60;99.90;;;;;;10336220;28;20054;-61
2021/12/30 02:39:56;;;;;;;1.30;0.40;;;10.50;99.90;;;;;;10347333;28;20113;-61
2021/12/30 02:44:58;;;;;;;2.17;0.40;;;10.40;99.90;;;;;;10352307;28;20050;-62
2021/12/30 02:49:59;;;;;;;4.30;0.50;;;10.40;99.90;;;;;;10347566;28;20056;-61
2021/12/30 02:55:01;;;;;;;4.45;1.67;;;10.30;99.90;;;;;;10348873;28;20085;-61
2021/12/30 03:00:06;;;;;;;10.45;0.57;;;10.30;99.90;;;;;;10343651;28;20100;-61
2021/12/30 03:05:09;;;;;;;1.65;0.43;;;10.20;99.90;;;;;;10344547;28;20489;-61
2021/12/30 03:10:17;;;;;;;7.45;1.95;;;10.20;99.90;;;;;;10345607;28;20050;-62
2021/12/30 03:15:20;;;;;;;5.20;0.40;;;10.10;99.90;;;;;;10343693;28;20049;-61
2021/12/30 03:20:21;;;;;;;3.42;0.90;;;10.10;99.90;;;;;;10347556;28;20116;-60
2021/12/30 03:25:23;;;;;;;10.52;3.53;;;10.00;99.90;;;;;;10338461;28;20142;-60
2021/12/30 03:30:25;;;;;;;4.20;0.70;;;9.90;99.90;;;;;;10346026;28;20124;-60
2021/12/30 03:35:27;;;;;;;5.25;0.68;;;9.90;99.90;;;;;;10341464;28;20054;-60
2021/12/30 03:40:29;;;;;;;2.72;0.40;;;10.00;99.90;;;;;;10342565;28;20141;-61
2021/12/30 03:45:31;;;;;;;6.22;0.70;;;10.00;99.90;;;;;;10340958;28;20132;-61
2021/12/30 03:50:33;;;;;;;4.28;0.65;;;10.10;99.90;;;;;;10342053;28;20077;-62
2021/12/30 03:55:34;;;;;;;6.28;1.00;;;10.20;99.90;;;;;;10342845;28;20135;-62
2021/12/30 04:00:37;;;;;;;5.70;1.02;;;10.20;99.90;;;;;;10339713;28;20077;-60
2021/12/30 04:05:39;;;;;;;9.02;0.80;;;10.20;99.90;;;;;;10344157;28;20061;-61
2021/12/30 04:10:41;;;;;;;2.83;0.90;;;10.10;99.90;;;;;;10344657;28;20057;-61
2021/12/30 04:15:43;;;;;;;2.83;0.50;;;10.10;99.90;;;;;;10340229;28;20050;-60
2021/12/30 04:20:46;;;;;;;4.25;0.32;;;10.20;99.90;;;;;;10343748;28;20124;-60
2021/12/30 04:25:48;;;;;;;4.18;0.57;;;10.10;99.90;;;;;;10344852;28;20508;-61
2021/12/30 04:30:50;;;;;;;3.78;0.70;;;10.10;99.90;;;;;;10339834;28;20493;-60
2021/12/30 04:35:56;;;;;;;3.67;0.70;;;10.10;99.90;;;;;;10328628;28;20085;-60
2021/12/30 04:40:58;;;;;;;5.63;0.80;;;10.10;99.90;;;;;;10342621;28;20050;-60
2021/12/30 04:46:02;;;;;;;9.25;1.52;;;10.10;99.90;;;;;;10350676;28;20514;-60
2021/12/30 04:51:04;;;;;;;3.97;0.75;;;10.10;99.90;;;;;;10337621;28;20144;-61
2021/12/30 04:56:05;;;;;;;3.67;0.70;;;10.10;99.90;;;;;;10340581;28;20058;-61
2021/12/30 05:01:07;;;;;;;10.23;1.00;;;10.10;99.90;;;;;;10335063;28;21484;-61
2021/12/30 05:06:09;;;;;;;6.53;1.08;;;10.10;99.90;;;;;;10335660;28;20049;-61
2021/12/30 05:11:11;;;;;;;7.18;0.90;;;10.10;99.90;;;;;;10337539;28;20046;-61
2021/12/30 05:16:15;;;;;;;7.57;0.70;;;10.10;99.90;;;;;;10333211;28;20139;-61
2021/12/30 05:21:17;;;;;;;12.98;1.98;;;10.10;99.90;;;;;;10344590;28;20042;-61
2021/12/30 05:26:19;;;;;;;6.82;0.73;;;10.10;99.90;;;;;;10334374;28;20045;-60
2021/12/30 05:31:20;;;;;;;5.85;0.57;;;10.10;99.90;;;;;;10338262;28;20049;-60
2021/12/30 05:36:22;;;;;;;9.02;1.65;;;10.10;99.90;;;;;;10334805;28;20054;-60
2021/12/30 05:41:26;;;;;;;3.20;0.60;;;10.20;99.90;;;;;;10336010;28;20149;-61
2021/12/30 05:46:28;;;;;;;6.55;1.92;;;10.30;99.90;;;;;;10336573;28;20571;-62
2021/12/30 05:51:30;;;;;;;8.60;0.75;;;10.30;99.90;;;;;;10338623;28;20381;-62
2021/12/30 05:56:31;;;;;;;1.92;0.50;;;10.30;99.90;;;;;;10343045;28;20134;-62
2021/12/30 06:01:33;;;;;;;7.82;0.68;;;10.30;99.90;;;;;;10335889;28;20142;-62
2021/12/30 06:06:37;;;;;;;3.90;0.85;;;10.30;99.90;;;;;;10340386;28;20463;-61
2021/12/30 06:11:39;;;;;;;7.28;1.00;;;10.30;99.90;;;;;;10340909;28;20050;-61
2021/12/30 06:16:40;;;;;;;10.40;1.20;;;10.30;99.90;;;;;;10340146;28;20065;-62
2021/12/30 06:21:42;;;;;;;8.90;1.90;;;10.40;99.90;;;;;;10343057;28;20103;-62
2021/12/30 06:26:44;;;;;;;16.42;1.83;;;10.40;99.90;;;;;;10333321;28;20189;-62
2021/12/30 06:31:45;;;;;;;11.10;1.80;;;10.40;99.90;;;;;;10343353;28;20045;-62
2021/12/30 06:36:47;;;;;;;12.48;1.95;;;10.40;99.90;;;;;;10339195;28;20049;-62
2021/12/30 06:41:49;;;;;;;27.10;5.10;;;10.50;99.90;;;;;;10338941;28;20448;-62
2021/12/30 06:46:57;;;;;;;12.13;2.22;;;10.60;99.90;;;;;;10340277;28;20103;-62
2021/12/30 06:51:59;;;;;;;14.23;2.42;;;10.70;99.90;;;;;;10336125;28;20077;-63
2021/12/30 06:57:03;;;;;;;10.93;2.13;;;10.80;99.90;;;;;;10333049;28;20096;-62
2021/12/30 07:02:05;;;;;;;9.63;1.35;;;10.90;99.90;;;;;;10335691;28;20073;-63
2021/12/30 07:07:08;;;;;;;7.97;1.00;;;10.90;99.90;;;;;;10338529;28;20054;-63
2021/12/30 07:12:10;;;;;;;11.05;1.13;;;10.90;99.90;;;;;;10338422;28;20412;-62
2021/12/30 07:17:11;;;;;;;12.13;1.02;;;10.90;99.90;;;;;;10334771;28;20077;-62
2021/12/30 07:22:13;;;;;;;3.08;0.57;;;10.90;99.90;;;;;;10339015;28;20558;-62
2021/12/30 07:27:35;;;;;;;23.02;5.18;;;10.80;99.90;;;;;;10344961;28;20050;-61
2021/12/30 07:32:36;;;;;;;4.75;1.75;;;10.90;99.90;;;;;;10341680;28;20108;-61
2021/12/30 07:37:38;;;;;;;7.45;1.02;;;10.90;99.90;;;;;;10342641;28;20085;-61
2021/12/30 07:42:40;;;;;;;7.90;1.65;;;10.90;99.90;;;;;;10342755;28;20563;-61
2021/12/30 07:47:42;;;;;;;7.43;2.35;;;10.90;99.90;;;;;;10324927;28;20111;-61
2021/12/30 07:52:44;;;;;;;5.25;1.42;;;11.00;99.90;;;;;;10338039;28;20104;-62
2021/12/30 07:57:46;;;;;;;5.07;1.23;;;11.10;99.90;;;;;;10344343;28;20140;-62
2021/12/30 08:02:48;;;;;;;4.25;1.13;;;11.30;99.90;;;;;;10339502;28;20096;-62
2021/12/30 08:07:49;;;;;;;2.65;1.25;;;11.30;99.90;;;;;;10340535;28;20133;-62
2021/12/30 08:12:54;;;;;;;4.45;1.00;;;11.40;99.90;;;;;;10337377;28;20049;-61
2021/12/30 08:17:56;;;;;;;5.82;1.42;;;11.50;99.90;;;;;;10345056;28;20045;-62
2021/12/30 08:22:57;;;;;;;11.20;2.35;;;11.60;99.90;;;;;;10341866;28;20131;-62
2021/12/30 08:27:59;;;;;;;5.05;1.80;;;11.70;99.90;;;;;;10342433;28;20169;-62
2021/12/30 08:33:01;;;;;;;4.03;1.02;;;11.70;99.90;;;;;;10341031;28;20140;-61
2021/12/30 08:38:02;;;;;;;3.65;0.80;;;11.80;99.90;;;;;;10339638;28;20049;-59
2021/12/30 08:43:06;;;;;;;3.90;0.80;;;11.90;99.90;;;;;;10339336;28;20073;-62
2021/12/30 08:48:08;;;;;;;1.15;0.50;;;12.00;99.90;;;;;;10336284;28;20162;-62
2021/12/30 08:53:10;;;;;;;4.00;0.47;;;12.10;99.90;;;;;;10335839;28;20049;-61
2021/12/30 08:58:12;;;;;;;2.00;0.38;;;12.30;99.90;;;;;;10339460;28;20196;-62
2021/12/30 09:03:16;;;;;;;2.35;0.30;;;12.30;99.90;;;;;;10338780;28;20130;-62
2021/12/30 09:08:18;;;;;;;3.05;0.30;;;12.40;99.90;;;;;;10339331;28;20053;-61
2021/12/30 09:13:20;;;;;;;0.60;0.30;;;12.50;99.90;;;;;;10341638;28;20057;-61
2021/12/30 09:18:24;;;;;;;1.52;0.30;;;12.60;99.90;;;;;;10340643;28;20129;-62
2021/12/30 09:23:25;;;;;;;1.17;0.20;;;12.70;99.90;;;;;;10336731;28;20045;-62
2021/12/30 09:28:27;;;;;;;4.05;1.05;;;12.80;99.90;;;;;;10342434;28;20042;-62
2021/12/30 09:33:29;;;;;;;1.63;0.40;;;12.80;99.90;;;;;;10333258;28;20444;-62
2021/12/30 09:38:30;;;;;;;1.25;0.40;;;12.90;99.90;;;;;;10338022;28;20049;-62
2021/12/30 09:43:34;;;;;;;0.93;0.30;;;13.00;99.90;;;;;;10335681;28;20711;-62
2021/12/30 09:48:36;;;;;;;1.42;0.50;;;13.10;99.90;;;;;;10340388;28;20052;-61
2021/12/30 09:53:37;;;;;;;2.55;0.38;;;13.20;99.90;;;;;;10342475;28;20044;-59
2021/12/30 09:58:39;;;;;;;1.38;0.28;;;13.20;99.90;;;;;;10342231;28;20045;-59
2021/12/30 10:03:42;;;;;;;2.60;0.38;;;13.30;99.90;;;;;;10341798;28;20089;-59
2021/12/30 10:09:10;;;;;;;1.65;0.20;;;13.40;99.90;;;;;;10339784;28;20132;-59
2021/12/30 10:14:26;;;;;;;0.35;0.30;;;13.60;99.90;;;;;;10337538;28;20042;-60
2021/12/30 10:19:29;;;;;;;1.60;0.30;;;13.70;99.90;;;;;;10340631;28;20081;-60
2021/12/30 10:24:32;;;;;;;2.45;0.30;;;13.80;99.90;;;;;;10335260;28;20050;-60
2021/12/30 10:29:42;;;;;;;0.82;0.20;;;13.90;99.90;;;;;;10336491;28;20073;-60
2021/12/30 10:35:06;;;;;;;2.00;0.20;;;13.90;99.90;;;;;;10339692;28;20049;-61
2021/12/30 10:40:26;;;;;;;0.95;0.30;;;14.00;99.90;;;;;;10335610;28;20568;-61
2021/12/30 10:45:27;;;;;;;0.60;0.20;;;14.00;99.90;;;;;;10339172;28;20069;-60
2021/12/30 10:50:29;;;;;;;0.57;0.45;;;14.00;99.90;;;;;;10333773;28;20046;-61
2021/12/30 10:55:33;;;;;;;0.35;0.20;;;14.10;99.90;;;;;;10344357;28;20046;-61
2021/12/30 11:00:35;;;;;;;0.68;0.17;;;14.20;99.90;;;;;;10340503;28;20123;-61
2021/12/30 11:05:37;;;;;;;0.50;0.10;;;14.30;99.90;;;;;;10341129;28;20049;-61
2021/12/30 11:10:39;;;;;;;0.22;0.10;;;14.50;99.90;;;;;;10339067;28;20460;-61
2021/12/30 11:15:41;;;;;;;0.20;0.10;;;14.60;99.90;;;;;;10346283;28;20046;-61
2021/12/30 11:20:48;;;;;;;0.20;0.13;;;14.80;99.90;;;;;;10341287;28;20089;-61
2021/12/30 11:25:50;;;;;;;2.03;0.10;;;14.80;99.90;;;;;;10344699;28;20129;-60
2021/12/30 11:30:52;;;;;;;0.32;0.15;;;14.90;99.90;;;;;;10351791;28;20057;-60
2021/12/30 11:35:58;;;;;;;0.20;0.10;;;15.00;99.90;;;;;;10338969;28;20132;-61
2021/12/30 11:41:00;;;;;;;0.32;0.13;;;15.00;99.90;;;;;;10342298;28;20049;-61
2021/12/30 11:46:01;;;;;;;0.30;0.10;;;15.00;99.90;;;;;;10342027;28;20050;-61
2021/12/30 11:51:06;;;;;;;1.85;0.10;;;15.00;99.90;;;;;;10339304;28;20052;-62
2021/12/30 11:56:10;;;;;;;3.28;0.10;;;15.10;99.90;;;;;;10343619;28;20152;-61
2021/12/30 12:01:12;;;;;;;0.80;0.10;;;15.10;99.90;;;;;;10341559;28;20062;-61
2021/12/30 12:06:30;;;;;;;0.10;0.00;;;15.20;99.90;;;;;;10341490;28;20129;-61
2021/12/30 12:11:46;;;;;;;0.10;0.10;;;15.20;99.90;;;;;;10335414;28;20158;-61
2021/12/30 12:17:10;;;;;;;0.57;0.10;;;15.30;99.90;;;;;;10338138;28;20445;-61
2021/12/30 12:22:21;;;;;;;0.08;0.00;;;15.30;99.90;;;;;;10340785;28;20139;-62
2021/12/30 12:27:23;;;;;;;0.35;0.13;;;15.30;99.90;;;;;;10342133;28;20085;-62
2021/12/30 12:32:38;;;;;;;2.60;0.10;;;15.30;99.90;;;;;;10344456;28;20078;-62
2021/12/30 12:37:40;;;;;;;0.30;0.10;;;15.30;99.90;;;;;;10339986;28;20108;-62
2021/12/30 12:42:51;;;;;;;0.50;0.10;;;15.40;99.90;;;;;;10343991;28;20496;-62
2021/12/30 12:48:17;;;;;;;0.20;0.10;;;15.40;99.90;;;;;;10335359;28;20443;-63
2021/12/30 12:53:29;;;;;;;0.00;0.00;;;15.50;99.90;;;;;;10341295;28;20119;-62
2021/12/30 12:58:36;;;;;;;0.15;0.10;;;15.50;99.90;;;;;;10346353;28;20089;-62
2021/12/30 13:03:38;;;;;;;1.13;0.10;;;15.40;99.90;;;;;;10338577;28;20112;-61
2021/12/30 13:08:42;;;;;;;0.70;0.10;;;15.30;99.90;;;;;;10342512;28;20137;-62
2021/12/30 13:13:45;;;;;;;0.15;0.10;;;15.20;99.90;;;;;;10341358;28;20141;-61
2021/12/30 13:19:08;;;;;;;2.95;0.20;;;15.00;99.90;;;;;;10331259;28;20548;-61
2021/12/30 13:24:39;;;;;;;0.30;0.10;;;14.90;99.90;;;;;;10333565;28;20069;-62
2021/12/30 13:29:46;;;;;;;0.95;0.10;;;14.90;99.90;;;;;;10337400;28;20129;-62
2021/12/30 13:35:02;;;;;;;0.40;0.10;;;14.90;99.90;;;;;;10339935;28;20046;-62
2021/12/30 13:40:26;;;;;;;0.10;0.10;;;15.00;99.90;;;;;;10338505;28;20049;-62
2021/12/30 13:45:31;;;;;;;0.10;0.10;;;15.00;99.90;;;;;;10337313;28;20054;-62
2021/12/30 13:50:36;;;;;;;0.70;0.10;;;15.10;99.90;;;;;;10343563;28;20896;-62
2021/12/30 13:55:44;;;;;;;0.10;0.10;;;15.20;99.90;;;;;;10331179;28;20070;-62
2021/12/30 14:00:49;;;;;;;0.20;0.10;;;15.20;99.90;;;;;;10336280;28;20102;-62
2021/12/30 14:05:51;;;;;;;0.50;0.10;;;15.30;99.90;;;;;;10338866;28;20053;-62
2021/12/30 14:10:56;;;;;;;0.25;0.10;;;15.30;99.90;;;;;;10337844;28;20516;-62
2021/12/30 14:15:58;;;;;;;0.40;0.10;;;15.30;99.90;;;;;;10338536;28;20054;-60
2021/12/30 14:21:01;;;;;;;0.10;0.10;;;15.30;99.90;;;;;;10336623;28;20050;-61
2021/12/30 14:26:20;;;;;;;0.45;0.10;;;15.30;99.90;;;;;;10335425;28;20073;-62
2021/12/30 14:31:38;;;;;;;0.22;0.10;;;15.30;99.90;;;;;;10331950;28;20129;-61
2021/12/30 14:36:47;;;;;;;;;;;15.20;99.90;;;;;;10342699;28;20057;-61
2021/12/30 14:42:01;;;;;;;0.30;0.10;;;15.20;99.90;;;;;;10341100;28;19984;-61
2021/12/30 14:47:12;;;;;;;0.40;0.13;;;15.10;99.90;;;;;;10324810;28;20563;-61
2021/12/30 14:52:20;;;;;;;1.42;0.10;;;15.00;99.90;;;;;;10341694;28;20623;-62
2021/12/30 14:57:24;;;;;;;0.10;0.05;;;14.80;99.90;;;;;;10338805;28;20081;-61
2021/12/30 15:02:29;;;;;;;0.30;0.10;;;14.70;99.90;;;;;;10343322;28;20081;-61
2021/12/30 15:07:31;;;;;;;0.70;0.38;;;14.60;99.90;;;;;;10343275;28;20412;-61
2021/12/30 15:12:35;;;;;;;0.08;0.00;;;14.50;99.90;;;;;;10345529;28;20741;-62
2021/12/30 15:17:38;;;;;;;0.38;0.08;;;14.50;99.90;;;;;;10352073;28;20054;-61
2021/12/30 15:22:39;;;;;;;0.28;0.20;;;14.40;99.90;;;;;;10339953;28;20057;-61
2021/12/30 15:27:42;;;;;;;1.27;0.17;;;14.20;99.90;;;;;;10342604;28;20041;-60
2021/12/30 15:32:43;;;;;;;0.63;0.00;;;14.20;99.90;;;;;;10344090;28;20854;-61
2021/12/30 15:37:46;;;;;;;0.63;0.20;;;14.10;99.90;;;;;;10339263;28;20191;-62
2021/12/30 15:42:47;;;;;;;0.40;0.10;;;14.00;99.90;;;;;;10339359;28;20687;-62
2021/12/30 15:47:49;;;;;;;0.20;0.10;;;13.90;99.90;;;;;;10355540;28;20127;-61
2021/12/30 15:52:54;;;;;;;1.17;0.13;;;13.90;99.90;;;;;;10342965;28;20080;-62
2021/12/30 15:58:01;;;;;;;0.65;0.13;;;13.80;99.90;;;;;;10339215;28;20115;-61
2021/12/30 16:03:03;;;;;;;0.40;0.10;;;13.80;99.90;;;;;;10339652;28;20074;-62
2021/12/30 16:08:06;;;;;;;0.25;0.13;;;13.80;99.90;;;;;;10343021;28;20276;-61
2021/12/30 16:13:08;;;;;;;0.20;0.20;;;13.80;99.90;;;;;;10339029;28;20127;-61
2021/12/30 16:18:10;;;;;;;2.80;0.20;;;13.70;99.90;;;;;;10339726;28;20142;-62
2021/12/30 16:23:12;;;;;;;2.42;0.30;;;13.60;99.90;;;;;;10337968;28;20042;-61
2021/12/30 16:28:14;;;;;;;0.40;0.20;;;13.50;99.90;;;;;;10343368;28;21019;-61
2021/12/30 16:33:15;;;;;;;1.25;0.30;;;13.30;99.90;;;;;;10333316;28;20058;-61
2021/12/30 16:38:17;;;;;;;0.85;0.20;;;13.20;99.90;;;;;;10338241;28;20097;-61
2021/12/30 16:43:20;;;;;;;0.50;0.20;;;13.10;99.90;;;;;;10342647;28;20823;-61
2021/12/30 16:48:22;;;;;;;0.40;0.20;;;13.00;99.90;;;;;;10336850;28;20129;-61
2021/12/30 16:53:23;;;;;;;0.25;0.20;;;13.00;99.90;;;;;;10340504;28;20216;-62
2021/12/30 16:58:27;;;;;;;2.03;0.40;;;12.90;99.90;;;;;;10308962;28;20070;-61
2021/12/30 17:03:29;;;;;;;4.20;0.30;;;12.90;99.90;;;;;;10337267;28;20501;-61
2021/12/30 17:08:31;;;;;;;1.83;0.30;;;12.90;99.90;;;;;;10338876;28;20085;-61
2021/12/30 17:13:33;;;;;;;0.52;0.20;;;12.90;99.90;;;;;;10334552;28;20469;-61
2021/12/30 17:18:34;;;;;;;0.70;0.22;;;12.80;99.90;;;;;;10342873;28;20512;-61
2021/12/30 17:23:36;;;;;;;1.00;0.43;;;12.90;99.90;;;;;;10337474;28;20092;-61
2021/12/30 17:28:38;;;;;;;2.42;0.73;;;12.90;99.90;;;;;;10338162;28;20121;-61
2021/12/30 17:33:41;;;;;;;0.40;0.40;;;12.90;99.90;;;;;;10335084;28;20469;-61
2021/12/30 17:38:45;;;;;;;2.35;0.40;;;12.90;99.90;;;;;;10336342;28;20159;-61
2021/12/30 17:43:48;;;;;;;1.13;0.38;;;12.90;99.90;;;;;;10333621;28;20204;-61
2021/12/30 17:48:49;;;;;;;1.23;0.30;;;13.00;99.90;;;;;;10338860;28;20057;-61
2021/12/30 17:53:51;;;;;;;2.60;0.45;;;12.90;99.90;;;;;;10336456;28;20057;-60
2021/12/30 17:58:54;;;;;;;0.98;0.40;;;13.00;99.90;;;;;;10337529;28;20053;-61
2021/12/30 18:03:56;;;;;;;0.75;0.30;;;13.00;99.90;;;;;;10332769;28;20045;-61
2021/12/30 18:08:58;;;;;;;1.48;0.60;;;13.00;99.90;;;;;;10336326;28;20058;-61
2021/12/30 18:14:01;;;;;;;1.23;0.30;;;13.00;99.90;;;;;;10335545;28;20069;-60
2021/12/30 18:19:07;;;;;;;2.97;0.47;;;13.00;99.90;;;;;;10332901;28;20056;-64
2021/12/30 18:24:09;;;;;;;0.75;0.40;;;13.00;99.90;;;;;;10336255;28;20096;-62
2021/12/30 18:29:10;;;;;;;2.38;0.47;;;13.00;99.90;;;;;;10328815;28;20152;-62
2021/12/30 18:34:12;;;;;;;1.70;0.38;;;13.00;99.90;;;;;;10329796;28;20108;-62
2021/12/30 18:39:14;;;;;;;1.33;0.40;;;13.00;99.90;;;;;;10336832;28;20050;-62
2021/12/30 18:44:16;;;;;;;3.05;0.73;;;13.00;99.90;;;;;;10336593;28;20182;-62
2021/12/30 18:49:20;;;;;;;1.00;0.22;;;12.90;99.90;;;;;;10329321;28;20578;-62
2021/12/30 18:54:22;;;;;;;1.13;0.47;;;13.00;99.90;;;;;;10329434;28;20097;-62
2021/12/30 18:59:24;;;;;;;2.30;0.38;;;13.00;99.90;;;;;;10334020;28;20568;-62
2021/12/30 19:04:26;;;;;;;3.20;3.00;;;13.00;99.90;;;;;;9754406;28;20428;-62
2021/12/30 19:09:29;;;;;;;4.55;3.70;;;13.00;99.90;;;;;;9709181;28;20348;-63
2021/12/30 19:14:32;;;;;;;3.47;3.17;;;13.00;99.90;;;;;;9704241;28;20300;-62
2021/12/30 19:19:34;;;;;;;4.40;4.00;;;12.90;99.90;;;;;;9670335;28;20281;-62
2021/12/30 19:24:35;;;;;;;5.32;3.83;;;12.80;99.90;;;;;;9671151;28;20247;-61
2021/12/30 19:29:37;;;;;;;2.65;0.32;;;12.80;99.90;;;;;;10162867;28;21388;-62
2021/12/30 19:34:39;;;;;;;3.83;0.93;;;12.70;99.90;;;;;;10343055;28;20053;-61
2021/12/30 19:39:47;;;;;;;7.18;1.77;;;12.80;99.90;;;;;;10346821;28;20493;-61
2021/12/30 19:44:50;;;;;;;1.25;0.85;;;12.80;99.90;;;;;;10337580;28;20500;-61
2021/12/30 19:49:52;;;;;;;1.60;0.43;;;12.90;99.90;;;;;;10338230;28;20132;-61
2021/12/30 19:54:55;;;;;;;0.60;0.30;;;12.80;99.90;;;;;;10341838;28;20042;-61
2021/12/30 19:59:56;;;;;;;3.63;1.40;;;12.80;99.90;;;;;;10342762;28;20378;-62
2021/12/30 20:04:58;;;;;;;5.15;0.47;;;12.80;99.90;;;;;;10342023;28;20073;-62
2021/12/30 20:10:00;;;;;;;2.22;0.80;;;12.80;99.90;;;;;;10340905;28;20038;-62
2021/12/30 20:15:05;;;;;;;1.75;0.68;;;12.90;99.90;;;;;;10338619;28;20045;-62
2021/12/30 20:20:10;;;;;;;1.80;0.52;;;12.90;99.90;;;;;;10335417;28;20038;-62
2021/12/30 20:25:14;;;;;;;3.28;0.60;;;12.90;99.90;;;;;;10343826;28;20042;-62
2021/12/30 20:30:19;;;;;;;2.35;0.50;;;12.90;99.90;;;;;;10343602;28;20132;-61
2021/12/30 20:35:21;;;;;;;4.00;0.63;;;12.90;99.90;;;;;;10338640;28;20133;-62
2021/12/30 20:40:27;;;;;;;1.48;0.60;;;12.90;99.90;;;;;;10340626;28;20077;-62
2021/12/30 20:45:29;;;;;;;4.90;0.53;;;12.80;99.90;;;;;;10341721;28;20082;-62
2021/12/30 20:50:35;;;;;;;2.97;0.50;;;12.80;99.90;;;;;;10340902;28;20440;-62
2021/12/30 20:55:38;;;;;;;1.95;0.90;;;12.60;99.90;;;;;;10333278;28;20151;-62
2021/12/30 21:00:42;;;;;;;1.30;0.70;;;12.60;99.90;;;;;;10337885;28;20057;-62
2021/12/30 21:05:46;;;;;;;4.35;0.77;;;12.50;99.90;;;;;;10341486;28;20149;-62
2021/12/30 21:10:50;;;;;;;2.72;0.70;;;12.50;99.90;;;;;;10340504;28;20046;-62
2021/12/30 21:15:53;;;;;;;2.78;0.60;;;12.50;99.90;;;;;;10335860;28;20132;-62
2021/12/30 21:20:57;;;;;;;2.08;0.50;;;12.60;99.90;;;;;;10339021;28;20120;-62
2021/12/30 21:26:01;;;;;;;0.90;0.40;;;12.60;99.90;;;;;;10336880;28;20049;-62
2021/12/30 21:31:05;;;;;;;2.88;0.47;;;12.70;99.90;;;;;;10338040;28;21291;-61
2021/12/30 21:36:09;;;;;;;2.92;0.70;;;12.70;99.90;;;;;;10334983;28;20054;-62
2021/12/30 21:41:11;;;;;;;1.02;0.40;;;12.70;99.90;;;;;;10337374;28;20141;-61
2021/12/30 21:46:13;;;;;;;2.67;0.40;;;12.70;99.90;;;;;;10340352;28;20120;-62
2021/12/30 21:51:15;;;;;;;2.20;0.50;;;12.70;99.90;;;;;;10338592;28;20061;-62
2021/12/30 21:56:17;;;;;;;1.33;0.40;;;12.70;99.90;;;;;;10336054;28;20130;-62
2021/12/30 22:01:18;;;;;;;2.47;0.50;;;12.60;99.90;;;;;;10335108;28;20050;-62
2021/12/30 22:06:20;;;;;;;1.90;0.60;;;12.70;99.90;;;;;;10330928;28;20389;-62
2021/12/30 22:11:23;;;;;;;1.17;0.38;;;12.60;99.90;;;;;;10332964;28;20200;-62
2021/12/30 22:16:25;;;;;;;2.03;0.70;;;12.60;99.90;;;;;;10335863;28;20076;-61
2021/12/30 22:21:45;;;;;;;1.10;0.60;;;12.60;99.90;;;;;;10337056;28;20145;-62
2021/12/30 22:26:47;;;;;;;0.60;0.40;;;12.50;99.90;;;;;;10336085;28;20139;-61
2021/12/30 22:31:51;;;;;;;1.70;0.50;;;12.50;99.90;;;;;;10342687;28;20552;-62
2021/12/30 22:36:54;;;;;;;0.47;0.30;;;12.50;99.90;;;;;;10333566;28;20137;-62
2021/12/30 22:41:56;;;;;;;2.60;0.50;;;12.40;99.90;;;;;;10341795;28;20493;-62
2021/12/30 22:46:58;;;;;;;2.63;0.50;;;12.40;99.90;;;;;;10340867;28;20107;-62
2021/12/30 22:52:00;;;;;;;1.23;0.40;;;12.50;99.90;;;;;;10346748;28;20540;-62
2021/12/30 22:57:02;;;;;;;1.55;0.47;;;12.50;99.90;;;;;;10346896;28;20084;-61
2021/12/30 23:02:05;;;;;;;3.83;0.50;;;12.50;99.90;;;;;;10349995;28;20065;-61
2021/12/30 23:07:07;;;;;;;4.72;0.50;;;12.50;99.90;;;;;;10346306;28;20386;-62
2021/12/30 23:12:09;;;;;;;3.00;0.50;;;12.50;99.90;;;;;;10346896;28;20050;-62
2021/12/30 23:17:10;;;;;;;1.10;0.52;;;12.40;99.90;;;;;;10342413;28;20121;-62
2021/12/30 23:22:12;;;;;;;2.63;0.63;;;12.50;99.90;;;;;;10345950;28;20062;-64
2021/12/30 23:27:14;;;;;;;1.63;0.60;;;12.50;99.90;;;;;;10343175;28;20112;-62
2021/12/30 23:32:15;;;;;;;5.65;0.70;;;12.40;99.90;;;;;;10348166;28;20046;-62
2021/12/30 23:37:17;;;;;;;6.85;0.90;;;12.40;99.90;;;;;;10347423;28;20089;-61
2021/12/30 23:42:19;;;;;;;1.63;0.85;;;12.40;99.90;;;;;;10348752;28;20046;-62
2021/12/30 23:47:20;;;;;;;2.30;0.73;;;12.40;99.90;;;;;;10348424;28;20080;-61
2021/12/30 23:52:23;;;;;;;1.92;0.77;;;12.30;99.90;;;;;;10343274;28;20196;-62
2021/12/30 23:57:25;;;;;;;2.17;0.60;;;12.30;99.90;;;;;;10348430;28;20053;-61
